Time;durP1;ratioP1;P1;durP2;ratioP2;P2;SDS_P1;SDS_P2;PMS_P1;PMS_P2;Temp;Humidity;BMP_temperature;BMP_pressure;BME280_temperature;BME280_humidity;BME280_pressure;Samples;Min_cycle;Max_cycle;Signal;HPM_P1;HPM_P2
2023/06/21 00:01:53;;;;;;;28.73;22.08;;;;;;;;;;4921084;29;20043;-86
2023/06/21 00:04:38;;;;;;;30.10;22.27;;;;;;;;;;4921012;29;20465;-86
2023/06/21 00:07:23;;;;;;;28.08;21.35;;;;;;;;;;4935114;29;20412;-86
2023/06/21 00:10:08;;;;;;;27.42;21.25;;;;;;;;;;4935178;29;20099;-91
2023/06/21 00:12:54;;;;;;;27.30;21.05;;;;;;;;;;4920989;29;20115;-85
2023/06/21 00:15:38;;;;;;;31.10;22.08;;;;;;;;;;4920930;29;20094;-86
2023/06/21 00:18:24;;;;;;;31.95;22.67;;;;;;;;;;4920575;29;20132;-86
2023/06/21 00:21:08;;;;;;;29.02;21.48;;;;;;;;;;4935168;29;20098;-86
2023/06/21 00:23:53;;;;;;;29.85;22.40;;;;;;;;;;4935197;29;20064;-86
2023/06/21 00:26:37;;;;;;;27.35;21.20;;;;;;;;;;4935158;29;20134;-86
2023/06/21 00:29:22;;;;;;;30.02;20.45;;;;;;;;;;4907076;29;20168;-86
2023/06/21 00:32:06;;;;;;;29.05;20.48;;;;;;;;;;4935090;29;20066;-85
2023/06/21 00:34:51;;;;;;;29.92;22.20;;;;;;;;;;4935007;29;20043;-85
2023/06/21 00:37:37;;;;;;;29.73;20.60;;;;;;;;;;4920355;29;20523;-85
2023/06/21 00:40:25;;;;;;;28.75;20.10;;;;;;;;;;4934590;29;20043;-85
2023/06/21 00:43:10;;;;;;;25.52;19.23;;;;;;;;;;4934936;29;20452;-86
2023/06/21 00:45:54;;;;;;;29.67;20.50;;;;;;;;;;4920684;29;20095;-86
2023/06/21 00:48:38;;;;;;;31.45;20.30;;;;;;;;;;4920216;29;20043;-87
2023/06/21 00:51:23;;;;;;;29.23;19.38;;;;;;;;;;4934499;29;20524;-86
2023/06/21 00:54:16;;;;;;;24.25;19.60;;;;;;;;;;4923799;29;20035;-86
2023/06/21 00:57:04;;;;;;;26.20;18.40;;;;;;;;;;4924109;29;20042;-86
2023/06/21 00:59:49;;;;;;;24.92;19.02;;;;;;;;;;4938458;29;20062;-86
2023/06/21 01:02:33;;;;;;;25.92;18.60;;;;;;;;;;4938044;29;20567;-86
2023/06/21 01:05:18;;;;;;;27.27;18.95;;;;;;;;;;4938101;29;20075;-87
2023/06/21 01:08:13;;;;;;;28.98;18.77;;;;;;;;;;4938234;29;20059;-86
2023/06/21 01:11:16;;;;;;;24.70;18.40;;;;;;;;;;4938214;29;20043;-87
2023/06/21 01:14:22;;;;;;;25.85;18.60;;;;;;;;;;4938188;29;20043;-88
2023/06/21 01:17:08;;;;;;;24.52;18.08;;;;;;;;;;4923775;29;20539;-86
2023/06/21 01:19:57;;;;;;;27.17;19.10;;;;;;;;;;4938204;29;20083;-86
2023/06/21 01:22:54;;;;;;;25.80;17.73;;;;;;;;;;4937903;29;20044;-88
2023/06/21 01:25:41;;;;;;;26.98;18.70;;;;;;;;;;4923313;29;20167;-86
2023/06/21 01:28:38;;;;;;;33.67;20.08;;;;;;;;;;4937704;29;20094;-88
2023/06/21 01:31:23;;;;;;;24.70;18.40;;;;;;;;;;4937595;29;20560;-87
2023/06/21 01:34:08;;;;;;;27.60;19.60;;;;;;;;;;4937866;29;20042;-86
2023/06/21 01:36:53;;;;;;;24.20;18.67;;;;;;;;;;4923508;29;20074;-86
2023/06/21 01:39:37;;;;;;;29.08;19.55;;;;;;;;;;4937492;29;20408;-86
2023/06/21 01:42:22;;;;;;;30.30;20.15;;;;;;;;;;4923036;29;20058;-86
2023/06/21 01:45:06;;;;;;;24.92;19.10;;;;;;;;;;4937758;29;20220;-87
2023/06/21 01:47:52;;;;;;;23.50;18.00;;;;;;;;;;4937671;29;20110;-88
2023/06/21 01:50:37;;;;;;;27.45;19.02;;;;;;;;;;4937003;29;20106;-87
2023/06/21 01:53:23;;;;;;;30.10;20.55;;;;;;;;;;4937412;29;20091;-91
2023/06/21 01:56:10;;;;;;;30.40;20.27;;;;;;;;;;4923076;29;20048;-87
2023/06/21 01:58:55;;;;;;;30.40;20.15;;;;;;;;;;4923107;29;20153;-86
2023/06/21 02:01:40;;;;;;;32.67;19.60;;;;;;;;;;4937023;29;20464;-87
2023/06/21 02:04:26;;;;;;;32.80;20.08;;;;;;;;;;4936932;29;20188;-88
2023/06/21 02:07:13;;;;;;;31.75;22.17;;;;;;;;;;4937342;29;20122;-86
2023/06/21 02:09:58;;;;;;;33.35;21.88;;;;;;;;;;4937144;29;20055;-87
2023/06/21 02:12:47;;;;;;;32.75;21.88;;;;;;;;;;4922481;29;20038;-87
2023/06/21 02:15:31;;;;;;;38.08;23.75;;;;;;;;;;4922454;29;20543;-87
2023/06/21 02:18:18;;;;;;;33.65;22.83;;;;;;;;;;4922591;29;20042;-87
2023/06/21 02:21:03;;;;;;;38.03;22.58;;;;;;;;;;4937142;29;20047;-86
2023/06/21 02:23:47;;;;;;;38.67;24.65;;;;;;;;;;4922317;29;20070;-86
2023/06/21 02:26:32;;;;;;;38.65;26.35;;;;;;;;;;4922263;29;20047;-87
2023/06/21 02:29:16;;;;;;;37.75;25.02;;;;;;;;;;4909322;29;20091;-87
2023/06/21 02:32:01;;;;;;;41.40;26.35;;;;;;;;;;4922551;29;20098;-87
2023/06/21 02:34:46;;;;;;;39.83;26.73;;;;;;;;;;4936417;29;20042;-87
2023/06/21 02:37:30;;;;;;;41.75;27.77;;;;;;;;;;4936473;29;20046;-86
2023/06/21 02:40:15;;;;;;;45.53;29.15;;;;;;;;;;4936728;29;20071;-87
2023/06/21 02:43:00;;;;;;;43.75;27.73;;;;;;;;;;4936750;29;20087;-88
2023/06/21 02:45:45;;;;;;;43.97;29.58;;;;;;;;;;4921795;29;20496;-87
2023/06/21 02:48:30;;;;;;;46.65;30.27;;;;;;;;;;4935934;29;20047;-86
2023/06/21 02:51:14;;;;;;;49.55;31.60;;;;;;;;;;4936463;29;20070;-87
2023/06/21 02:53:59;;;;;;;49.45;31.60;;;;;;;;;;4936394;29;20604;-87
2023/06/21 02:56:44;;;;;;;50.35;31.02;;;;;;;;;;4921567;29;20042;-87
2023/06/21 02:59:28;;;;;;;55.53;32.88;;;;;;;;;;4936127;29;20083;-92
2023/06/21 03:02:13;;;;;;;54.13;33.67;;;;;;;;;;4921977;29;20038;-86
2023/06/21 03:04:58;;;;;;;57.45;33.83;;;;;;;;;;4936325;29;20034;-87
2023/06/21 03:07:44;;;;;;;53.42;33.28;;;;;;;;;;4935769;29;20528;-87
2023/06/21 03:10:29;;;;;;;55.60;34.03;;;;;;;;;;4936068;29;20183;-87
2023/06/21 03:13:14;;;;;;;58.65;35.33;;;;;;;;;;4936118;29;20570;-86
2023/06/21 03:15:58;;;;;;;57.63;33.97;;;;;;;;;;4935525;29;20492;-87
2023/06/21 03:18:43;;;;;;;57.67;35.72;;;;;;;;;;4935551;29;20068;-87
2023/06/21 03:21:27;;;;;;;60.42;35.20;;;;;;;;;;4935866;29;20126;-87
2023/06/21 03:24:12;;;;;;;61.42;35.08;;;;;;;;;;4935879;29;20042;-87
2023/06/21 03:26:57;;;;;;;60.90;34.72;;;;;;;;;;4907968;29;20048;-87
2023/06/21 03:29:42;;;;;;;66.30;39.03;;;;;;;;;;4921114;29;20095;-87
2023/06/21 03:32:26;;;;;;;75.07;39.08;;;;;;;;;;4921436;29;20068;-87
2023/06/21 03:35:11;;;;;;;63.03;37.10;;;;;;;;;;4935842;29;20412;-87
2023/06/21 03:37:55;;;;;;;65.40;37.33;;;;;;;;;;4921168;29;20043;-87
2023/06/21 03:40:40;;;;;;;66.72;38.28;;;;;;;;;;4921033;29;20045;-87
2023/06/21 03:43:24;;;;;;;65.93;38.58;;;;;;;;;;4908069;29;20046;-87
2023/06/21 03:46:09;;;;;;;71.05;38.55;;;;;;;;;;4935623;29;20123;-87
2023/06/21 03:48:53;;;;;;;67.80;39.10;;;;;;;;;;4935331;29;20511;-87
2023/06/21 03:51:39;;;;;;;66.70;38.78;;;;;;;;;;4935280;29;20043;-89
2023/06/21 03:54:23;;;;;;;68.57;38.95;;;;;;;;;;4921071;29;20050;-87
2023/06/21 03:57:08;;;;;;;66.07;41.08;;;;;;;;;;4935375;29;20748;-89
2023/06/21 03:59:52;;;;;;;67.40;37.40;;;;;;;;;;4934985;29;20136;-86
2023/06/21 04:02:37;;;;;;;67.68;38.83;;;;;;;;;;4935150;29;20480;-92
2023/06/21 04:05:21;;;;;;;63.70;36.60;;;;;;;;;;4935468;29;20127;-88
2023/06/21 04:08:06;;;;;;;64.43;37.22;;;;;;;;;;4920929;29;20038;-87
2023/06/21 04:10:52;;;;;;;62.08;36.63;;;;;;;;;;4920530;29;20183;-87
2023/06/21 04:13:36;;;;;;;61.88;36.40;;;;;;;;;;4921154;29;20408;-91
2023/06/21 04:16:21;;;;;;;62.05;36.08;;;;;;;;;;4907487;29;20044;-88
2023/06/21 04:19:05;;;;;;;60.10;36.08;;;;;;;;;;4920855;29;20078;-87
2023/06/21 04:21:50;;;;;;;62.22;36.38;;;;;;;;;;4920582;29;20115;-88
2023/06/21 04:24:36;;;;;;;65.40;36.88;;;;;;;;;;4920783;29;20051;-87
2023/06/21 04:27:22;;;;;;;67.10;37.78;;;;;;;;;;4908148;29;20047;-88
2023/06/21 04:30:10;;;;;;;61.42;36.60;;;;;;;;;;4924776;29;20070;-87
2023/06/21 04:32:55;;;;;;;67.15;37.03;;;;;;;;;;4924407;29;20070;-87
2023/06/21 04:35:40;;;;;;;65.25;38.33;;;;;;;;;;4938653;29;20095;-92
2023/06/21 04:38:24;;;;;;;67.97;39.47;;;;;;;;;;4924465;29;20046;-87
2023/06/21 04:41:08;;;;;;;59.28;36.78;;;;;;;;;;4924413;29;20108;-87
2023/06/21 04:43:53;;;;;;;59.22;36.88;;;;;;;;;;4923918;29;20071;-88
2023/06/21 04:46:38;;;;;;;60.55;36.15;;;;;;;;;;4924462;29;20043;-87
2023/06/21 04:49:25;;;;;;;56.08;36.90;;;;;;;;;;4924140;29;20416;-87
2023/06/21 04:52:10;;;;;;;61.42;37.38;;;;;;;;;;4924167;29;20047;-87
2023/06/21 04:54:59;;;;;;;63.13;37.40;;;;;;;;;;4938156;29;20091;-88
2023/06/21 04:57:45;;;;;;;64.13;37.13;;;;;;;;;;4911111;29;20127;-90
2023/06/21 05:00:30;;;;;;;60.60;36.80;;;;;;;;;;4938455;29;20126;-87
2023/06/21 05:03:15;;;;;;;62.60;36.75;;;;;;;;;;4937716;29;20131;-88
2023/06/21 05:06:00;;;;;;;58.65;35.72;;;;;;;;;;4937962;29;20083;-88
2023/06/21 05:08:45;;;;;;;59.88;35.55;;;;;;;;;;4923558;29;20062;-91
2023/06/21 05:11:30;;;;;;;52.55;34.55;;;;;;;;;;4910395;29;20187;-88
2023/06/21 05:14:15;;;;;;;57.55;34.10;;;;;;;;;;4937817;29;20039;-88
2023/06/21 05:17:00;;;;;;;46.90;29.80;;;;;;;;;;4923363;29;20119;-88
2023/06/21 05:19:44;;;;;;;51.22;32.10;;;;;;;;;;4937527;29;20043;-92
2023/06/21 05:22:29;;;;;;;49.35;32.65;;;;;;;;;;4923282;29;20068;-87
2023/06/21 05:25:14;;;;;;;44.80;28.63;;;;;;;;;;4938012;29;20050;-88
2023/06/21 05:27:59;;;;;;;42.47;28.48;;;;;;;;;;4909913;29;20511;-88
2023/06/21 05:30:43;;;;;;;42.42;26.35;;;;;;;;;;4937732;29;20050;-88
2023/06/21 05:33:28;;;;;;;43.70;26.52;;;;;;;;;;4937739;29;20042;-88
2023/06/21 05:36:12;;;;;;;40.30;26.23;;;;;;;;;;4937470;29;20047;-87
2023/06/21 05:38:57;;;;;;;39.92;25.50;;;;;;;;;;4909332;29;20054;-88
2023/06/21 05:41:41;;;;;;;38.67;24.75;;;;;;;;;;4938037;29;20119;-88
2023/06/21 05:44:26;;;;;;;34.90;21.67;;;;;;;;;;4922640;29;20043;-88
2023/06/21 05:47:10;;;;;;;36.42;23.15;;;;;;;;;;4936733;29;20039;-90
2023/06/21 05:49:55;;;;;;;34.47;22.83;;;;;;;;;;4908748;29;20059;-93
2023/06/21 05:52:43;;;;;;;35.60;21.80;;;;;;;;;;4937120;29;20051;-91
2023/06/21 05:55:27;;;;;;;29.70;19.30;;;;;;;;;;4936496;29;20080;-91
2023/06/21 05:58:12;;;;;;;28.83;18.13;;;;;;;;;;4935564;29;20499;-91
2023/06/21 06:00:57;;;;;;;26.85;18.55;;;;;;;;;;4935523;29;20130;-91
2023/06/21 06:03:42;;;;;;;26.65;17.00;;;;;;;;;;4922046;29;20043;-92
2023/06/21 06:06:34;;;;;;;27.50;16.63;;;;;;;;;;4921622;29;20078;-94
2023/06/21 06:09:19;;;;;;;24.60;16.02;;;;;;;;;;4937353;29;20111;-89
2023/06/21 06:12:04;;;;;;;24.25;15.30;;;;;;;;;;4908854;29;20070;-89
2023/06/21 06:14:49;;;;;;;24.13;15.60;;;;;;;;;;4937144;29;20156;-88
2023/06/21 06:17:33;;;;;;;26.00;15.73;;;;;;;;;;4937195;29;20507;-89
2023/06/21 06:20:18;;;;;;;21.25;13.50;;;;;;;;;;4937011;29;20126;-89
2023/06/21 06:23:03;;;;;;;24.92;15.32;;;;;;;;;;4936654;29;20046;-89
2023/06/21 06:25:47;;;;;;;19.42;13.02;;;;;;;;;;4922623;29;20082;-89
2023/06/21 06:28:32;;;;;;;19.52;13.25;;;;;;;;;;4936940;29;20043;-89
2023/06/21 06:31:24;;;;;;;23.75;12.55;;;;;;;;;;4936704;29;20058;-87
2023/06/21 06:34:11;;;;;;;20.27;12.05;;;;;;;;;;4937880;29;20127;-86
2023/06/21 06:40:37;;;;;;;22.42;12.35;;;;;;;;;;4936201;29;20074;-88
2023/06/21 06:43:21;;;;;;;20.02;11.30;;;;;;;;;;4936791;29;20452;-87
2023/06/21 06:46:06;;;;;;;16.60;10.27;;;;;;;;;;4936186;29;20038;-86
2023/06/21 06:48:50;;;;;;;17.20;10.27;;;;;;;;;;4921760;29;20079;-87
2023/06/21 06:51:35;;;;;;;16.48;9.90;;;;;;;;;;4921211;29;20165;-88
2023/06/21 06:54:19;;;;;;;21.10;10.52;;;;;;;;;;4936085;29;20051;-86
2023/06/21 06:57:04;;;;;;;14.68;8.15;;;;;;;;;;4921652;29;20047;-88
2023/06/21 06:59:48;;;;;;;16.52;8.68;;;;;;;;;;4936229;29;20047;-87
2023/06/21 07:02:33;;;;;;;14.93;9.20;;;;;;;;;;4936216;29;20043;-89
2023/06/21 07:05:18;;;;;;;15.05;8.10;;;;;;;;;;4936332;29;20261;-85
2023/06/21 07:08:03;;;;;;;14.88;8.93;;;;;;;;;;4937342;29;20113;-84
2023/06/21 07:10:48;;;;;;;14.52;8.75;;;;;;;;;;4909022;29;20051;-87
2023/06/21 07:13:32;;;;;;;15.48;8.20;;;;;;;;;;4936140;29;20051;-87
2023/06/21 07:16:17;;;;;;;14.05;8.77;;;;;;;;;;4921191;29;20058;-87
2023/06/21 07:19:03;;;;;;;12.93;8.75;;;;;;;;;;4934776;29;20090;-90
2023/06/21 07:21:49;;;;;;;12.02;7.32;;;;;;;;;;4935166;29;20076;-89
2023/06/21 07:24:34;;;;;;;14.07;7.53;;;;;;;;;;4936005;29;20175;-89
2023/06/21 07:27:19;;;;;;;11.02;7.47;;;;;;;;;;4907738;29;20513;-89
2023/06/21 07:30:05;;;;;;;14.90;7.75;;;;;;;;;;4921016;29;20054;-88
2023/06/21 07:32:50;;;;;;;11.80;7.15;;;;;;;;;;4935732;29;20106;-89
2023/06/21 07:35:35;;;;;;;12.30;7.82;;;;;;;;;;4935755;29;20091;-89
2023/06/21 07:38:19;;;;;;;11.50;6.80;;;;;;;;;;4935269;29;20521;-89
2023/06/21 07:41:04;;;;;;;14.98;7.50;;;;;;;;;;4935281;29;20051;-91
2023/06/21 07:43:48;;;;;;;10.50;6.55;;;;;;;;;;4921142;29;20063;-89
2023/06/21 07:46:33;;;;;;;11.18;6.53;;;;;;;;;;4935563;29;20059;-89
2023/06/21 07:49:18;;;;;;;11.30;6.68;;;;;;;;;;4934947;29;20123;-88
2023/06/21 07:52:03;;;;;;;12.05;6.93;;;;;;;;;;4934350;29;20560;-90
2023/06/21 07:54:50;;;;;;;8.95;6.45;;;;;;;;;;4935328;29;20067;-89
2023/06/21 07:57:34;;;;;;;8.23;4.88;;;;;;;;;;4934432;29;20147;-88
2023/06/21 08:00:19;;;;;;;11.30;6.10;;;;;;;;;;4934211;29;20047;-89
2023/06/21 08:03:04;;;;;;;9.43;5.78;;;;;;;;;;4934132;29;20082;-90
2023/06/21 08:05:49;;;;;;;10.35;6.30;;;;;;;;;;4935188;29;20119;-88
2023/06/21 08:08:34;;;;;;;10.55;5.82;;;;;;;;;;4935291;29;20564;-89
2023/06/21 08:11:18;;;;;;;10.88;6.10;;;;;;;;;;4933803;29;20568;-87
2023/06/21 08:14:03;;;;;;;8.25;4.93;;;;;;;;;;4920926;29;20067;-88
2023/06/21 08:16:48;;;;;;;7.47;5.22;;;;;;;;;;4935274;29;20487;-89
2023/06/21 08:19:33;;;;;;;9.23;4.95;;;;;;;;;;4935115;29;20035;-89
2023/06/21 08:22:17;;;;;;;9.95;5.78;;;;;;;;;;4920580;29;20428;-89
2023/06/21 08:25:02;;;;;;;7.90;4.72;;;;;;;;;;4920852;29;20328;-89
2023/06/21 08:27:47;;;;;;;7.10;4.68;;;;;;;;;;4934205;29;20496;-89
2023/06/21 08:30:31;;;;;;;8.95;4.55;;;;;;;;;;4907067;29;20103;-89
2023/06/21 08:33:16;;;;;;;8.48;4.88;;;;;;;;;;4934727;29;20082;-91
2023/06/21 08:36:00;;;;;;;8.05;4.50;;;;;;;;;;4920734;29;20099;-90
2023/06/21 08:38:45;;;;;;;10.48;5.35;;;;;;;;;;4933932;29;20094;-89
2023/06/21 08:41:30;;;;;;;9.25;4.90;;;;;;;;;;4934544;29;20047;-89
2023/06/21 08:44:15;;;;;;;9.73;4.65;;;;;;;;;;4934619;29;20039;-89
2023/06/21 08:47:01;;;;;;;6.47;3.42;;;;;;;;;;4934930;29;20071;-89
2023/06/21 08:49:47;;;;;;;5.50;3.95;;;;;;;;;;4933599;29;20059;-89
2023/06/21 08:52:32;;;;;;;7.03;4.68;;;;;;;;;;4933719;29;20070;-88
2023/06/21 08:55:18;;;;;;;5.80;3.83;;;;;;;;;;4934419;29;20066;-90
2023/06/21 08:58:16;;;;;;;6.97;4.45;;;;;;;;;;4934924;29;20066;-89
2023/06/21 09:01:03;;;;;;;6.85;3.60;;;;;;;;;;4933794;29;20604;-88
2023/06/21 09:03:57;;;;;;;7.32;3.58;;;;;;;;;;4933856;29;20403;-88
2023/06/21 09:06:43;;;;;;;7.35;4.00;;;;;;;;;;4934879;29;20042;-89
2023/06/21 09:09:28;;;;;;;6.15;3.40;;;;;;;;;;4934343;29;20039;-90
2023/06/21 09:12:14;;;;;;;6.63;3.70;;;;;;;;;;4934486;29;20046;-92
2023/06/21 09:14:59;;;;;;;5.15;3.42;;;;;;;;;;4936578;29;20099;-88
2023/06/21 09:17:44;;;;;;;8.07;3.95;;;;;;;;;;4938220;29;20038;-89
2023/06/21 09:20:30;;;;;;;5.93;3.78;;;;;;;;;;4937728;29;20050;-90
2023/06/21 09:23:15;;;;;;;7.15;3.25;;;;;;;;;;4936848;29;20042;-91
2023/06/21 09:25:59;;;;;;;5.72;3.35;;;;;;;;;;4937873;29;20499;-89
2023/06/21 09:28:44;;;;;;;8.00;3.55;;;;;;;;;;4937974;29;20122;-89
2023/06/21 09:31:29;;;;;;;7.82;3.60;;;;;;;;;;4937392;29;20150;-88
2023/06/21 09:34:13;;;;;;;4.38;2.72;;;;;;;;;;4923564;29;20091;-88
2023/06/21 09:36:58;;;;;;;5.10;3.13;;;;;;;;;;4937620;29;20066;-88
2023/06/21 09:39:54;;;;;;;5.72;3.10;;;;;;;;;;4937919;29;20400;-89
2023/06/21 09:42:42;;;;;;;7.22;2.95;;;;;;;;;;4936138;29;20118;-89
2023/06/21 09:45:27;;;;;;;7.18;3.50;;;;;;;;;;4937161;29;20035;-90
2023/06/21 09:48:15;;;;;;;4.28;2.60;;;;;;;;;;4937581;29;20042;-89
2023/06/21 09:51:08;;;;;;;7.38;2.92;;;;;;;;;;4937698;29;20078;-89
2023/06/21 09:53:53;;;;;;;6.53;2.92;;;;;;;;;;4937468;29;20395;-88
2023/06/21 09:56:37;;;;;;;7.72;3.15;;;;;;;;;;4937098;29;20082;-89
2023/06/21 09:59:22;;;;;;;5.50;2.70;;;;;;;;;;4936063;29;20512;-88
2023/06/21 10:02:07;;;;;;;4.18;2.10;;;;;;;;;;4937243;29;20147;-90
2023/06/21 10:04:54;;;;;;;5.68;2.70;;;;;;;;;;4937331;29;20043;-89
2023/06/21 10:07:42;;;;;;;5.88;2.95;;;;;;;;;;4935741;29;20633;-89
2023/06/21 10:10:28;;;;;;;5.38;3.03;;;;;;;;;;4936622;29;20114;-89
2023/06/21 10:13:13;;;;;;;5.65;2.85;;;;;;;;;;4937258;29;20188;-89
2023/06/21 10:15:59;;;;;;;5.82;2.72;;;;;;;;;;4935965;29;20067;-89
2023/06/21 10:18:43;;;;;;;5.28;2.75;;;;;;;;;;4936406;29;20098;-89
2023/06/21 10:21:28;;;;;;;4.50;2.47;;;;;;;;;;4936456;29;20103;-90
2023/06/21 10:24:14;;;;;;;5.10;2.00;;;;;;;;;;4936672;29;20055;-89
2023/06/21 10:26:59;;;;;;;10.55;3.53;;;;;;;;;;4935279;29;20039;-90
2023/06/21 10:29:44;;;;;;;5.20;2.60;;;;;;;;;;4936509;29;20512;-89
2023/06/21 10:32:31;;;;;;;6.70;2.53;;;;;;;;;;4936403;29;20095;-91
2023/06/21 10:35:19;;;;;;;4.63;2.30;;;;;;;;;;4936655;29;20047;-89
2023/06/21 10:38:06;;;;;;;4.47;2.20;;;;;;;;;;4936767;29;20086;-89
2023/06/21 10:40:51;;;;;;;3.13;2.10;;;;;;;;;;4936595;29;20476;-90
2023/06/21 10:43:36;;;;;;;4.03;2.45;;;;;;;;;;4936210;29;20066;-90
2023/06/21 10:46:21;;;;;;;4.43;2.30;;;;;;;;;;4936450;29;20511;-89
2023/06/21 10:49:06;;;;;;;3.28;1.98;;;;;;;;;;4936303;29;20038;-89
2023/06/21 10:51:51;;;;;;;3.72;2.40;;;;;;;;;;4922804;29;20075;-88
2023/06/21 10:54:37;;;;;;;6.50;2.53;;;27.40;99.90;;;;;;4936024;29;20467;-89
2023/06/21 10:57:23;;;;;;;4.15;2.13;;;;;;;;;;4908616;29;20123;-90
2023/06/21 11:00:08;;;;;;;3.63;1.90;;;;;;;;;;4936290;29;20047;-90
2023/06/21 11:02:54;;;;;;;5.18;2.00;;;;;;;;;;4936476;29;20115;-89
2023/06/21 11:05:38;;;;;;;4.97;2.25;;;;;;;;;;4921541;29;20127;-87
2023/06/21 11:08:33;;;;;;;3.80;1.88;;;;;;;;;;4936203;29;20495;-87
2023/06/21 11:11:31;;;;;;;8.23;2.88;;;;;;;;;;4936006;29;20051;-88
2023/06/21 11:14:20;;;;;;;5.35;2.53;;;;;;;;;;4936144;29;20062;-87
2023/06/21 11:17:06;;;;;;;6.53;2.55;;;;;;;;;;4935933;29;20594;-87
2023/06/21 11:19:51;;;;;;;5.55;2.30;;;;;;;;;;4935813;29;20046;-87
2023/06/21 11:22:35;;;;;;;4.47;1.83;;;;;;;;;;4934594;29;20043;-87
2023/06/21 11:25:20;;;;;;;4.18;2.00;;;;;;;;;;4935871;29;20039;-87
2023/06/21 11:28:20;;;;;;;4.00;2.33;;;;;;;;;;4935095;29;20046;-87
2023/06/21 11:31:07;;;;;;;6.88;2.30;;;;;;;;;;4935631;29;20123;-88
2023/06/21 11:33:57;;;;;;;4.43;2.13;;;;;;;;;;4935385;29;20536;-88
2023/06/21 11:36:44;;;;;;;5.22;2.33;;;;;;;;;;4934860;29;20122;-87
2023/06/21 11:39:28;;;;;;;3.58;2.33;;;;;;;;;;4935500;29;20071;-91
2023/06/21 11:42:15;;;;;;;7.07;2.50;;;;;;;;;;4935477;29;20098;-89
2023/06/21 11:45:19;;;;;;;4.38;2.20;;;;;;;;;;4934485;29;20487;-88
2023/06/21 11:48:03;;;;;;;5.57;2.20;;;;;;;;;;4935469;29;20063;-88
2023/06/21 11:50:49;;;;;;;3.90;1.88;;;;;;;;;;4933894;29;20086;-87
2023/06/21 11:53:40;;;;;;;6.38;2.03;;;;;;;;;;4920606;29;20059;-88
2023/06/21 11:56:32;;;;;;;3.70;1.85;;;;;;;;;;4934356;29;20094;-87
2023/06/21 11:59:16;;;;;;;4.85;2.53;;;;;;;;;;4921093;29;20184;-88
2023/06/21 12:02:13;;;;;;;5.18;2.20;;;;;;;;;;4935235;29;20047;-88
2023/06/21 12:04:58;;;;;;;4.35;2.40;;;;;;;;;;4935175;29;20038;-87
2023/06/21 12:07:42;;;;;;;6.32;2.70;;;;;;;;;;4933928;29;20078;-88
2023/06/21 12:10:27;;;;;;;4.82;2.88;;;;;;;;;;4935134;29;20194;-87
2023/06/21 12:13:13;;;;;;;5.88;2.42;;;;;;;;;;4935121;29;20401;-88
2023/06/21 12:15:59;;;;;;;3.65;2.58;;;;;;;;;;4934919;29;20419;-87
2023/06/21 12:18:43;;;;;;;5.78;3.53;;;;;;;;;;4933779;29;20046;-88
2023/06/21 12:21:28;;;;;;;3.75;2.78;;;;;;;;;;4934991;29;20102;-87
2023/06/21 12:24:12;;;;;;;4.95;2.20;;;;;;;;;;4933993;29;20039;-87
2023/06/21 12:27:01;;;;;;;5.63;2.20;;;;;;;;;;4934644;29;20046;-88
2023/06/21 12:29:52;;;;;;;3.72;1.80;;;;;;;;;;4933622;29;20134;-89
2023/06/21 12:32:36;;;;;;;5.38;2.42;;;;;;;;;;4933806;29;20058;-91
2023/06/21 12:35:21;;;;;;;3.60;2.00;;;;;;;;;;4934697;29;20123;-88
2023/06/21 12:38:13;;;;;;;2.92;1.67;;;;;;;;;;4933983;29;20039;-88
2023/06/21 12:40:59;;;;;;;3.20;1.80;;;;;;;;;;4934575;29;20055;-88
2023/06/21 12:43:45;;;;;;;3.38;1.98;;;;;;;;;;4934505;29;20047;-88
2023/06/21 12:46:37;;;;;;;4.07;1.70;;;;;;;;;;4934009;29;20086;-87
2023/06/21 12:49:21;;;;;;;3.70;1.52;;;;;;;;;;4937058;29;20062;-88
2023/06/21 12:52:06;;;;;;;3.55;1.58;;;;;;;;;;4937566;29;20274;-87
2023/06/21 12:54:55;;;;;;;3.65;1.85;;;;;;;;;;4938173;29;20152;-88
2023/06/21 12:57:39;;;;;;;3.33;1.77;;;;;;;;;;4938124;29;20043;-89
2023/06/21 13:00:25;;;;;;;6.32;1.70;;;;;;;;;;4924209;29;20058;-89
2023/06/21 13:03:09;;;;;;;4.53;2.85;;;;;;;;;;4938444;29;20043;-88
2023/06/21 13:05:54;;;;;;;3.75;2.20;;;;;;;;;;4923670;29;20499;-88
2023/06/21 13:08:38;;;;;;;3.25;1.77;;;;;;;;;;4938170;29;20047;-92
2023/06/21 13:11:23;;;;;;;4.22;1.73;;;;;;;;;;4938178;29;20132;-88
2023/06/21 13:14:09;;;;;;;3.90;1.48;;;;;;;;;;4938266;29;20094;-88
2023/06/21 13:16:53;;;;;;;6.00;2.10;;;;;;;;;;4937804;29;20090;-89
2023/06/21 13:19:38;;;;;;;20.80;5.10;;;;;;;;;;4938150;29;20047;-88
2023/06/21 13:22:22;;;;;;;5.80;2.85;;;;;;;;;;4938030;29;20093;-88
2023/06/21 13:25:07;;;;;;;3.17;1.50;;;;;;;;;;4937937;29;20090;-88
2023/06/21 13:27:52;;;;;;;5.03;2.40;;;;;;;;;;4937598;29;20090;-88
2023/06/21 13:30:37;;;;;;;3.58;1.70;;;;;;;;;;4937860;29;20051;-88
2023/06/21 13:33:21;;;;;;;5.90;2.50;;;;;;;;;;4937855;29;20089;-88
2023/06/21 13:36:06;;;;;;;3.67;2.47;;;;;;;;;;4937516;29;20074;-89
2023/06/21 13:38:51;;;;;;;3.08;1.60;;;;;;;;;;4936424;29;20091;-88
2023/06/21 13:41:35;;;;;;;3.45;1.80;;;;;;;;;;4937806;29;20126;-88
2023/06/21 13:44:20;;;;;;;4.45;2.00;;;;;;;;;;4937624;29;20065;-88
2023/06/21 13:47:04;;;;;;;4.28;1.92;;;;;;;;;;4937284;29;20039;-88
2023/06/21 13:49:49;;;;;;;4.95;2.75;;;;;;;;;;4937234;29;20091;-88
2023/06/21 13:52:34;;;;;;;5.30;2.25;;;;;;;;;;4937474;29;20516;-88
2023/06/21 13:55:19;;;;;;;6.45;1.70;;;;;;;;;;4936518;29;20042;-87
2023/06/21 13:58:03;;;;;;;4.97;1.95;;;;;;;;;;4936115;29;20070;-89
2023/06/21 14:00:48;;;;;;;3.20;1.83;;;;;;;;;;4936726;29;20245;-88
2023/06/21 14:03:33;;;;;;;6.20;1.88;;;;;;;;;;4936390;29;20093;-88
2023/06/21 14:06:17;;;;;;;4.05;1.70;;;;;;;;;;4937197;29;20551;-88
2023/06/21 14:09:02;;;;;;;4.90;2.58;;;;;;;;;;4937057;29;20504;-88
2023/06/21 14:11:47;;;;;;;3.53;1.45;;;;;;;;;;4937191;29;20400;-94
2023/06/21 14:14:31;;;;;;;6.30;1.75;;;;;;;;;;4922736;29;20078;-88
2023/06/21 14:17:16;;;;;;;7.22;1.83;;;;;;;;;;4937282;29;20067;-88
2023/06/21 14:20:00;;;;;;;14.15;4.25;;;;;;;;;;4922417;29;20196;-87
2023/06/21 14:22:45;;;;;;;8.05;2.55;;;;;;;;;;4937078;29;20098;-88
2023/06/21 14:25:30;;;;;;;6.05;2.10;;;;;;;;;;4937048;29;20456;-87
2023/06/21 14:28:14;;;;;;;5.88;2.75;;;;;;;;;;4936865;29;20107;-91
2023/06/21 14:30:59;;;;;;;111.55;101.70;;;;;;;;;;4936556;29;20087;-87
2023/06/21 14:33:43;;;;;;;10.10;2.72;;;;;;;;;;4936845;29;20448;-86
2023/06/21 14:36:28;;;;;;;10.05;4.60;;;;;;;;;;4936712;29;20435;-87
2023/06/21 14:39:13;;;;;;;7.68;2.28;;;;;;;;;;4936500;29;20102;-87
2023/06/21 14:41:58;;;;;;;10.35;3.90;;;;;;;;;;4936278;29;20049;-86
2023/06/21 14:44:44;;;;;;;4.85;2.50;;;;;;;;;;4935805;29;20047;-86
2023/06/21 14:47:28;;;;;;;4.15;2.38;;;;;;;;;;4936479;29;20046;-87
2023/06/21 14:50:13;;;;;;;3.40;1.83;;;;;;;;;;4936234;29;20133;-88
2023/06/21 14:52:59;;;;;;;10.60;4.30;;;;;;;;;;4936213;29;20083;-87
2023/06/21 14:55:43;;;;;;;6.00;2.55;;;;;;;;;;4936295;29;20038;-87
2023/06/21 14:58:28;;;;;;;7.50;2.55;;;;;;;;;;4936348;29;20050;-86
2023/06/21 15:01:13;;;;;;;4.63;2.05;;;;;;;;;;4936026;29;20507;-87
2023/06/21 15:03:58;;;;;;;10.35;3.80;;;;;;;;;;4935828;29;20452;-88
2023/06/21 15:06:43;;;;;;;5.85;2.42;;;;;;;;;;4936294;29;20091;-87
2023/06/21 15:09:27;;;;;;;5.68;1.85;;;;;;;;;;4936012;29;20050;-87
2023/06/21 15:12:12;;;;;;;6.50;3.25;;;;;;;;;;4933932;29;20073;-87
2023/06/21 15:14:56;;;;;;;9.57;3.28;;;;;;;;;;4935451;29;20083;-87
2023/06/21 15:17:41;;;;;;;6.95;2.20;;;;;;;;;;4921520;29;20043;-88
2023/06/21 15:20:25;;;;;;;4.82;2.03;;;;;;;;;;4935980;29;20098;-87
2023/06/21 15:23:10;;;;;;;10.38;4.07;;;;;;;;;;4935542;29;20090;-88
2023/06/21 15:25:55;;;;;;;5.88;2.00;;;;;;;;;;4935793;29;20042;-89
2023/06/21 15:28:39;;;;;;;4.97;2.33;;;;;;;;;;4937382;29;20090;-88
2023/06/21 15:31:24;;;;;;;7.70;2.38;;;;;;;;;;4923800;29;20508;-87
2023/06/21 15:34:09;;;;;;;6.15;2.42;;;;;;;;;;4937591;29;20511;-86
2023/06/21 15:36:57;;;;;;;3.63;2.10;;;;;;;;;;4940230;29;20063;-90
2023/06/21 15:39:42;;;;;;;4.43;2.03;;;;;;;;;;4943702;29;20098;-87
2023/06/21 15:42:26;;;;;;;4.60;2.42;;;;;;;;;;4935273;29;20046;-85
2023/06/21 15:45:11;;;;;;;6.93;3.08;;;;;;;;;;4920615;29;20074;-87
2023/06/21 15:47:55;;;;;;;5.38;2.67;;;;;;;;;;4935541;29;20556;-91
2023/06/21 15:50:40;;;;;;;6.93;2.42;;;;;;;;;;4935435;29;20055;-87
2023/06/21 15:53:25;;;;;;;5.63;2.00;;;;;;;;;;4935315;29;20047;-86
2023/06/21 15:56:09;;;;;;;7.82;2.95;;;;;;;;;;4934900;29;20058;-87
2023/06/21 15:58:54;;;;;;;6.97;2.55;;;;;;;;;;4934301;29;20091;-86
2023/06/21 16:01:38;;;;;;;7.55;2.72;;;;;;;;;;4935260;29;20050;-88
2023/06/21 16:04:23;;;;;;;5.78;2.63;;;;;;;;;;4935174;29;20034;-85
2023/06/21 16:07:08;;;;;;;8.93;3.88;;;;;;;;;;4934895;29;20062;-87
2023/06/21 16:09:53;;;;;;;5.78;2.50;;;;;;;;;;4935239;29;20544;-87
2023/06/21 16:12:37;;;;;;;6.57;2.92;;;;;;;;;;4935276;29;20085;-87
2023/06/21 16:15:22;;;;;;;8.68;3.00;;;;;;;;;;4934718;29;20070;-88
2023/06/21 16:18:07;;;;;;;8.48;3.53;;;;;;;;;;4933874;29;20516;-88
2023/06/21 16:20:51;;;;;;;7.90;2.42;;;;;;;;;;4934239;29;20440;-87
2023/06/21 16:23:36;;;;;;;7.53;2.60;;;;;;;;;;4937759;29;20058;-87